createdAt,value
2023-02-24T00:01:24.801Z,8.90
2023-02-24T00:03:52.803Z,8.89
2023-02-24T00:06:20.131Z,8.78
2023-02-24T00:08:47.339Z,8.80
2023-02-24T00:11:17.043Z,8.83
2023-02-24T00:13:48.123Z,8.82
2023-02-24T00:16:17.579Z,8.81
2023-02-24T00:18:45.216Z,8.82
2023-02-24T00:21:15.560Z,8.82
2023-02-24T00:23:44.200Z,8.82
2023-02-24T00:26:12.074Z,8.82
2023-02-24T00:28:40.131Z,8.83
2023-02-24T00:31:14.295Z,8.83
2023-02-24T00:33:42.140Z,8.80
2023-02-24T00:36:23.867Z,8.80
2023-02-24T00:38:58.378Z,8.78
2023-02-24T00:41:29.299Z,8.82
2023-02-24T00:44:08.614Z,8.84
2023-02-24T00:46:45.672Z,8.83
2023-02-24T00:49:18.492Z,8.83
2023-02-24T00:51:49.126Z,8.83
2023-02-24T00:54:16.842Z,8.83
2023-02-24T00:56:45.255Z,8.81
2023-02-24T00:59:13.581Z,8.82
2023-02-24T01:01:41.399Z,8.81
2023-02-24T01:04:11.850Z,8.80
2023-02-24T01:06:41.610Z,8.79
2023-02-24T01:09:12.150Z,8.79
2023-02-24T01:11:57.899Z,8.81
2023-02-24T01:14:29.089Z,8.81
2023-02-24T01:16:56.026Z,8.82
2023-02-24T01:19:31.321Z,8.80
2023-02-24T01:22:08.905Z,8.79
2023-02-24T01:24:38.544Z,8.75
2023-02-24T01:27:07.397Z,8.78
2023-02-24T01:29:39.385Z,8.76
2023-02-24T01:32:12.793Z,8.72
2023-02-24T01:34:42.380Z,8.69
2023-02-24T01:37:09.744Z,8.65
2023-02-24T01:39:36.423Z,8.63
2023-02-24T01:42:06.107Z,8.65
2023-02-24T01:44:33.312Z,8.66
2023-02-24T01:47:01.362Z,8.66
2023-02-24T01:49:39.303Z,8.66
2023-02-24T01:52:11.218Z,8.65
2023-02-24T01:54:42.962Z,8.63
2023-02-24T01:57:16.512Z,8.63
2023-02-24T01:59:46.469Z,8.65
2023-02-24T02:02:15.325Z,8.65
2023-02-24T02:04:47.965Z,8.71
2023-02-24T02:07:18.334Z,8.72
2023-02-24T02:09:46.686Z,8.71
2023-02-24T02:12:13.826Z,8.70
2023-02-24T02:14:47.943Z,8.70
2023-02-24T02:17:36.922Z,8.71
2023-02-24T02:20:20.171Z,8.70
2023-02-24T02:22:54.551Z,8.68
2023-02-24T02:25:54.653Z,8.72
2023-02-24T02:28:45.770Z,8.76
2023-02-24T02:31:29.179Z,8.78
2023-02-24T02:34:08.305Z,8.78
2023-02-24T02:36:57.400Z,8.77
2023-02-24T02:39:48.807Z,8.77
2023-02-24T02:42:25.004Z,8.77
2023-02-24T02:45:07.646Z,8.75
2023-02-24T02:47:43.305Z,8.71
2023-02-24T02:50:18.436Z,8.68
2023-02-24T02:52:54.056Z,8.65
2023-02-24T02:55:30.062Z,8.65
2023-02-24T02:57:59.070Z,8.62
2023-02-24T03:00:35.146Z,8.62
2023-02-24T03:03:10.157Z,8.62
2023-02-24T03:05:46.902Z,8.62
2023-02-24T03:08:19.129Z,8.62
2023-02-24T03:10:51.055Z,8.62
2023-02-24T03:13:22.922Z,8.64
2023-02-24T03:15:52.554Z,8.65
2023-02-24T03:18:28.957Z,8.61
2023-02-24T03:21:07.598Z,8.64
2023-02-24T03:23:45.294Z,8.60
2023-02-24T03:26:21.992Z,8.55
2023-02-24T03:29:01.598Z,8.53
2023-02-24T03:31:43.757Z,8.55
2023-02-24T03:34:41.924Z,8.52
2023-02-24T03:37:09.096Z,8.46
2023-02-24T03:39:36.545Z,8.48
2023-02-24T03:42:19.183Z,8.48
2023-02-24T03:44:46.137Z,8.47
2023-02-24T03:47:15.933Z,8.45
2023-02-24T03:49:43.677Z,8.46
2023-02-24T03:52:33.811Z,8.47
2023-02-24T03:55:08.533Z,8.42
2023-02-24T03:58:04.132Z,8.43
2023-02-24T04:01:18.132Z,8.41
2023-02-24T04:03:47.298Z,8.39
2023-02-24T04:06:34.878Z,8.39
2023-02-24T04:09:20.129Z,8.36
2023-02-24T04:12:18.776Z,8.38
2023-02-24T04:15:10.495Z,8.38
2023-02-24T04:17:54.806Z,8.39
2023-02-24T04:20:29.336Z,8.39
2023-02-24T04:23:12.722Z,8.38
2023-02-24T04:25:44.807Z,8.34
2023-02-24T04:28:13.371Z,8.38
2023-02-24T04:30:48.384Z,8.37
2023-02-24T04:33:15.311Z,8.32
2023-02-24T04:35:45.660Z,8.34
2023-02-24T04:38:12.292Z,8.32
2023-02-24T04:40:40.835Z,8.30
2023-02-24T04:43:07.818Z,8.28
2023-02-24T04:45:34.318Z,8.23
2023-02-24T04:48:05.361Z,8.27
2023-02-24T04:50:35.034Z,8.23
2023-02-24T04:53:12.337Z,8.23
2023-02-24T04:55:48.603Z,8.23
2023-02-24T04:58:20.720Z,8.22
2023-02-24T05:00:49.175Z,8.18
2023-02-24T05:03:17.341Z,8.20
2023-02-24T05:05:52.579Z,8.21
2023-02-24T05:08:19.938Z,8.22
2023-02-24T05:10:47.445Z,8.16
2023-02-24T05:13:21.987Z,8.24
2023-02-24T05:15:49.618Z,8.26
2023-02-24T05:18:17.383Z,8.27
2023-02-24T05:21:04.622Z,8.30
2023-02-24T05:23:35.522Z,8.28
2023-02-24T05:26:08.991Z,8.28
2023-02-24T05:28:37.125Z,8.30
2023-02-24T05:31:15.546Z,8.29
2023-02-24T05:33:43.857Z,8.36
2023-02-24T05:36:15.633Z,8.39
2023-02-24T05:38:43.943Z,8.40
2023-02-24T05:41:16.876Z,8.41
2023-02-24T05:43:48.100Z,8.37
2023-02-24T05:46:16.101Z,8.41
2023-02-24T05:48:44.005Z,8.42
2023-02-24T05:51:12.337Z,8.44
2023-02-24T05:53:42.140Z,8.46
2023-02-24T05:56:09.928Z,8.48
2023-02-24T05:58:39.263Z,8.50
2023-02-24T06:01:16.279Z,8.51
2023-02-24T06:03:47.708Z,8.48
2023-02-24T06:06:16.402Z,8.45
2023-02-24T06:08:49.740Z,8.49
2023-02-24T06:11:19.264Z,8.51
2023-02-24T06:13:49.954Z,8.49
2023-02-24T06:16:17.976Z,8.50
2023-02-24T06:18:49.883Z,8.52
2023-02-24T06:21:16.412Z,8.52
2023-02-24T06:23:42.953Z,8.53
2023-02-24T06:26:19.168Z,8.50
2023-02-24T06:28:46.575Z,8.46
2023-02-24T06:31:13.999Z,8.41
2023-02-24T06:33:41.812Z,8.37
2023-02-24T06:36:08.834Z,8.28
2023-02-24T06:38:36.788Z,8.27
2023-02-24T06:41:10.630Z,8.25
2023-02-24T06:43:43.116Z,8.19
2023-02-24T06:46:12.356Z,8.21
2023-02-24T06:48:39.663Z,8.21
2023-02-24T06:51:08.144Z,8.18
2023-02-24T06:53:43.050Z,8.18
2023-02-24T06:56:15.439Z,8.22
2023-02-24T06:58:43.765Z,8.24
2023-02-24T07:01:15.448Z,8.28
2023-02-24T07:04:02.641Z,8.31
2023-02-24T07:06:31.011Z,8.32
2023-02-24T07:08:58.806Z,8.32
2023-02-24T07:11:25.927Z,8.32
2023-02-24T07:13:54.481Z,8.36
2023-02-24T07:16:25.640Z,8.40
2023-02-24T07:18:57.474Z,8.44
2023-02-24T07:21:26.352Z,8.45
2023-02-24T07:23:59.700Z,8.41
2023-02-24T07:26:27.832Z,8.44
2023-02-24T07:28:55.002Z,8.45
2023-02-24T07:31:24.260Z,8.45
2023-02-24T07:33:57.118Z,8.43
2023-02-24T07:36:24.784Z,8.40
2023-02-24T07:38:53.315Z,8.40
2023-02-24T07:41:22.852Z,8.44
2023-02-24T07:43:51.695Z,8.46
2023-02-24T07:46:24.346Z,8.48
2023-02-24T07:48:52.550Z,8.49
2023-02-24T07:51:22.864Z,8.48
2023-02-24T07:53:56.586Z,8.50
2023-02-24T07:56:27.036Z,8.46
2023-02-24T07:59:15.982Z,8.46
2023-02-24T08:01:49.697Z,8.44
2023-02-24T08:04:23.344Z,8.47
2023-02-24T08:06:55.765Z,8.45
2023-02-24T08:09:46.783Z,8.46
2023-02-24T08:12:22.430Z,8.48
2023-02-24T08:14:53.419Z,8.45
2023-02-24T08:17:26.365Z,8.50
2023-02-24T08:20:13.186Z,8.55
2023-02-24T08:22:43.926Z,8.59
2023-02-24T08:25:18.106Z,8.60
2023-02-24T08:28:06.388Z,8.64
2023-02-24T08:30:38.762Z,8.66
2023-02-24T08:33:08.001Z,8.70
2023-02-24T08:35:37.102Z,8.71
2023-02-24T08:38:07.673Z,8.70
2023-02-24T08:40:50.030Z,8.71
2023-02-24T08:43:31.161Z,8.76
2023-02-24T08:46:06.524Z,8.77
2023-02-24T08:48:42.297Z,8.78
2023-02-24T08:51:15.752Z,8.79
2023-02-24T08:53:42.734Z,8.80
2023-02-24T08:56:12.543Z,8.82
2023-02-24T08:58:47.933Z,8.83
2023-02-24T09:01:23.886Z,8.86
2023-02-24T09:03:57.215Z,8.90
2023-02-24T09:06:34.713Z,8.96
2023-02-24T09:09:20.808Z,9.05
2023-02-24T09:11:57.042Z,9.08
2023-02-24T09:14:29.625Z,9.11
2023-02-24T09:17:06.166Z,9.18
2023-02-24T09:19:51.620Z,9.22
2023-02-24T09:22:32.645Z,9.27
2023-02-24T09:25:26.311Z,9.35
2023-02-24T09:28:17.020Z,9.38
2023-02-24T09:30:53.518Z,9.41
2023-02-24T09:33:38.769Z,9.42
2023-02-24T09:36:10.145Z,9.41
2023-02-24T09:38:56.811Z,9.41
2023-02-24T09:42:18.021Z,9.33
2023-02-24T09:44:49.040Z,9.30
2023-02-24T09:47:56.707Z,9.32
2023-02-24T09:50:51.210Z,9.37
2023-02-24T09:53:14.042Z,9.42
2023-02-24T09:56:00.292Z,9.45
2023-02-24T09:58:43.053Z,9.47
2023-02-24T10:01:42.662Z,9.44
2023-02-24T10:04:20.654Z,9.42
2023-02-24T10:06:57.634Z,9.37
2023-02-24T10:09:34.379Z,9.36
2023-02-24T10:12:18.755Z,9.37
2023-02-24T10:15:00.555Z,9.37
2023-02-24T10:17:40.069Z,9.36
2023-02-24T10:20:30.783Z,9.38
2023-02-24T10:23:15.164Z,9.43
2023-02-24T10:25:56.394Z,9.42
2023-02-24T10:28:51.818Z,9.43
2023-02-24T10:31:35.488Z,9.47
2023-02-24T10:34:06.354Z,9.50
2023-02-24T10:36:36.729Z,9.52
2023-02-24T10:39:09.113Z,9.53
2023-02-24T10:41:47.397Z,9.49
2023-02-24T10:44:25.003Z,9.48
2023-02-24T10:47:11.436Z,9.46
2023-02-24T10:49:56.837Z,9.45
2023-02-24T10:52:53.177Z,9.44
2023-02-24T10:55:45.613Z,9.37
2023-02-24T10:58:38.124Z,9.40
2023-02-24T11:01:13.905Z,9.36
2023-02-24T11:04:02.247Z,9.34
2023-02-24T11:06:41.308Z,9.26
2023-02-24T11:09:31.766Z,9.19
2023-02-24T11:12:22.889Z,9.11
2023-02-24T11:15:17.276Z,9.03
2023-02-24T11:17:53.162Z,9.00
2023-02-24T11:20:48.043Z,8.97
2023-02-24T11:23:20.087Z,8.89
2023-02-24T11:25:51.091Z,8.89
2023-02-24T11:28:38.487Z,8.91
2023-02-24T11:31:27.937Z,8.91
2023-02-24T11:34:07.496Z,8.91
2023-02-24T11:36:50.672Z,8.93
2023-02-24T11:39:50.616Z,8.94
2023-02-24T11:42:24.765Z,8.96
2023-02-24T11:45:12.155Z,9.01
2023-02-24T11:47:48.754Z,9.04
2023-02-24T11:50:32.424Z,9.08
2023-02-24T11:53:05.823Z,9.10
2023-02-24T11:55:42.315Z,9.11
2023-02-24T11:58:20.564Z,9.12
2023-02-24T12:01:18.359Z,9.13
2023-02-24T12:03:53.666Z,9.11
2023-02-24T12:06:30.664Z,9.05
2023-02-24T12:09:07.694Z,9.06
2023-02-24T12:11:48.324Z,9.10
2023-02-24T12:14:23.808Z,9.10
2023-02-24T12:16:59.022Z,9.13
2023-02-24T12:19:44.785Z,9.21
2023-02-24T12:22:15.535Z,9.26
2023-02-24T12:24:49.847Z,9.27
2023-02-24T12:28:02.021Z,9.35
2023-02-24T12:30:57.462Z,9.42
2023-02-24T12:33:43.703Z,9.48
2023-02-24T12:36:47.683Z,9.57
2023-02-24T12:39:20.354Z,9.86
2023-02-24T12:41:55.924Z,10.15
2023-02-24T12:44:42.019Z,10.41
2023-02-24T12:47:17.228Z,10.56
2023-02-24T12:49:58.914Z,10.47
2023-02-24T12:52:47.821Z,10.25
2023-02-24T12:55:25.286Z,10.12
2023-02-24T12:58:13.854Z,10.10
2023-02-24T13:00:54.791Z,10.14
2023-02-24T13:03:44.194Z,10.14
2023-02-24T13:06:36.868Z,10.17
2023-02-24T13:09:24.001Z,10.44
2023-02-24T13:11:59.425Z,10.84
2023-02-24T13:14:31.798Z,11.06
2023-02-24T13:17:11.734Z,11.19
2023-02-24T13:19:43.360Z,11.04
2023-02-24T13:22:12.934Z,10.85
2023-02-24T13:24:42.588Z,10.70
2023-02-24T13:27:27.104Z,10.57
2023-02-24T13:29:58.167Z,10.54
2023-02-24T13:32:36.476Z,10.47
2023-02-24T13:35:26.055Z,10.44
2023-02-24T13:37:53.876Z,10.42
2023-02-24T13:40:23.339Z,10.39
2023-02-24T13:43:00.408Z,10.33
2023-02-24T13:45:29.177Z,10.24
2023-02-24T13:48:20.782Z,10.15
2023-02-24T13:51:00.538Z,10.11
2023-02-24T13:53:52.894Z,10.02
2023-02-24T13:56:53.619Z,9.90
2023-02-24T13:59:48.563Z,9.83
2023-02-24T14:02:22.651Z,9.81
2023-02-24T14:04:55.498Z,9.80
2023-02-24T14:07:25.337Z,9.82
2023-02-24T14:09:59.620Z,9.80
2023-02-24T14:12:35.156Z,9.76
2023-02-24T14:15:03.135Z,9.73
2023-02-24T14:17:37.134Z,9.69
2023-02-24T14:20:06.634Z,9.62
2023-02-24T14:22:34.601Z,9.55
2023-02-24T14:25:05.188Z,9.55
2023-02-24T14:27:31.943Z,9.53
2023-02-24T14:29:58.438Z,9.52
2023-02-24T14:32:26.806Z,9.53
2023-02-24T14:34:54.808Z,9.54
2023-02-24T14:37:28.269Z,9.56
2023-02-24T14:39:57.487Z,9.60
2023-02-24T14:42:24.924Z,9.64
2023-02-24T14:44:53.786Z,9.66
2023-02-24T14:47:23.969Z,9.68
2023-02-24T14:49:59.712Z,9.65
2023-02-24T14:52:38.493Z,9.65
2023-02-24T14:55:16.575Z,9.57
2023-02-24T14:57:50.990Z,9.60
2023-02-24T15:00:24.010Z,9.60
2023-02-24T15:02:57.289Z,9.58
2023-02-24T15:05:23.938Z,9.60
2023-02-24T15:07:51.845Z,9.59
2023-02-24T15:10:25.902Z,9.60
2023-02-24T15:13:00.400Z,9.58
2023-02-24T15:15:30.670Z,9.57
2023-02-24T15:18:03.963Z,9.56
2023-02-24T15:20:36.440Z,9.53
2023-02-24T15:23:03.355Z,9.48
2023-02-24T15:25:45.489Z,9.53
2023-02-24T15:28:33.241Z,9.55
2023-02-24T15:31:15.711Z,9.55
2023-02-24T15:33:44.911Z,9.53
2023-02-24T15:36:17.964Z,9.48
2023-02-24T15:38:45.589Z,9.46
2023-02-24T15:41:16.050Z,9.46
2023-02-24T15:43:50.008Z,9.43
2023-02-24T15:46:19.758Z,9.40
2023-02-24T15:48:48.915Z,9.41
2023-02-24T15:51:37.028Z,9.42
2023-02-24T15:54:06.239Z,9.41
2023-02-24T15:56:34.433Z,9.40
2023-02-24T15:59:02.469Z,9.38
2023-02-24T16:01:33.014Z,9.39
2023-02-24T16:04:04.779Z,9.39
2023-02-24T16:06:32.079Z,9.35
2023-02-24T16:08:59.427Z,9.31
2023-02-24T16:11:29.126Z,9.34
2023-02-24T16:13:58.589Z,9.34
2023-02-24T16:16:26.341Z,9.30
2023-02-24T16:18:53.680Z,9.25
2023-02-24T16:21:20.324Z,9.24
2023-02-24T16:23:46.818Z,9.20
2023-02-24T16:26:19.690Z,9.14
2023-02-24T16:28:57.399Z,9.09
2023-02-24T16:31:25.991Z,9.04
2023-02-24T16:33:55.448Z,8.99
2023-02-24T16:36:24.937Z,8.95
2023-02-24T16:38:51.791Z,8.89
2023-02-24T16:41:18.412Z,8.86
2023-02-24T16:43:44.851Z,8.81
2023-02-24T16:46:17.636Z,8.75
2023-02-24T16:48:49.116Z,8.70
2023-02-24T16:51:16.276Z,8.66
2023-02-24T16:53:43.480Z,8.61
2023-02-24T16:56:09.971Z,8.56
2023-02-24T16:58:36.416Z,8.54
2023-02-24T17:01:04.731Z,8.51
2023-02-24T17:03:50.036Z,8.49
2023-02-24T17:06:16.521Z,8.41
2023-02-24T17:08:44.272Z,8.41
2023-02-24T17:11:13.906Z,8.37
2023-02-24T17:13:40.762Z,8.32
2023-02-24T17:16:07.691Z,8.27
2023-02-24T17:18:34.101Z,8.22
2023-02-24T17:21:00.516Z,8.14
2023-02-24T17:23:27.036Z,8.12
2023-02-24T17:25:56.805Z,8.07
2023-02-24T17:28:23.898Z,7.99
2023-02-24T17:30:50.779Z,7.92
2023-02-24T17:33:17.386Z,7.83
2023-02-24T17:35:44.629Z,7.83
2023-02-24T17:38:19.633Z,7.79
2023-02-24T17:40:46.398Z,7.75
2023-02-24T17:43:13.609Z,7.69
2023-02-24T17:45:45.624Z,7.69
2023-02-24T17:48:13.901Z,7.68
2023-02-24T17:50:45.190Z,7.65
2023-02-24T17:53:11.548Z,7.63
2023-02-24T17:55:38.520Z,7.57
2023-02-24T17:58:05.050Z,7.51
2023-02-24T18:00:31.666Z,7.48
2023-02-24T18:02:58.420Z,7.43
2023-02-24T18:05:25.291Z,7.41
2023-02-24T18:07:53.428Z,7.40
2023-02-24T18:10:20.016Z,7.36
2023-02-24T18:12:46.428Z,7.31
2023-02-24T18:15:12.864Z,7.31
2023-02-24T18:17:39.454Z,7.27
2023-02-24T18:20:07.267Z,7.21
2023-02-24T18:22:34.129Z,7.18
2023-02-24T18:25:01.100Z,7.11
2023-02-24T18:27:27.625Z,6.99
2023-02-24T18:29:54.309Z,6.94
2023-02-24T18:32:21.693Z,6.91
2023-02-24T18:34:48.263Z,6.82
2023-02-24T18:37:14.668Z,6.79
2023-02-24T18:39:41.074Z,6.72
2023-02-24T18:42:07.814Z,6.69
2023-02-24T18:44:34.250Z,6.63
2023-02-24T18:47:00.831Z,6.55
2023-02-24T18:49:27.288Z,6.53
2023-02-24T18:51:53.695Z,6.49
2023-02-24T18:54:20.179Z,6.45
2023-02-24T18:56:46.681Z,6.42
2023-02-24T18:59:13.128Z,6.38
2023-02-24T19:01:39.990Z,6.33
2023-02-24T19:04:08.508Z,6.26
2023-02-24T19:06:35.843Z,6.22
2023-02-24T19:09:10.896Z,6.13
2023-02-24T19:11:39.125Z,6.05
2023-02-24T19:14:07.450Z,5.98
2023-02-24T19:16:34.327Z,5.88
2023-02-24T19:19:01.005Z,5.88
2023-02-24T19:21:31.238Z,5.83
2023-02-24T19:24:03.966Z,5.86
2023-02-24T19:26:30.682Z,5.84
2023-02-24T19:28:58.461Z,5.80
2023-02-24T19:31:27.968Z,5.80
2023-02-24T19:34:00.306Z,5.74
2023-02-24T19:36:28.544Z,5.77
2023-02-24T19:38:54.974Z,5.77
2023-02-24T19:41:21.536Z,5.78
2023-02-24T19:43:48.014Z,5.81
2023-02-24T19:46:16.112Z,5.83
2023-02-24T19:48:42.641Z,5.85
2023-02-24T19:51:21.216Z,5.91
2023-02-24T19:53:52.289Z,5.93
2023-02-24T19:56:26.532Z,5.93
2023-02-24T19:58:54.516Z,6.01
2023-02-24T20:01:21.869Z,6.01
2023-02-24T20:03:48.936Z,6.03
2023-02-24T20:06:21.629Z,5.99
2023-02-24T20:08:48.407Z,5.94
2023-02-24T20:11:14.882Z,5.94
2023-02-24T20:13:41.356Z,5.94
2023-02-24T20:16:13.124Z,5.91
2023-02-24T20:18:40.752Z,5.90
2023-02-24T20:21:08.292Z,5.83
2023-02-24T20:23:34.692Z,5.84
2023-02-24T20:26:01.658Z,5.81
2023-02-24T20:28:29.221Z,5.87
2023-02-24T20:30:57.718Z,5.87
2023-02-24T20:33:25.811Z,5.77
2023-02-24T20:35:52.364Z,5.78
2023-02-24T20:38:18.799Z,5.77
2023-02-24T20:40:45.224Z,5.67
2023-02-24T20:43:11.672Z,5.65
2023-02-24T20:45:38.699Z,5.62
2023-02-24T20:48:06.570Z,5.52
2023-02-24T20:50:34.012Z,5.50
2023-02-24T20:53:03.308Z,5.45
2023-02-24T20:55:30.375Z,5.41
2023-02-24T20:57:56.837Z,5.37
2023-02-24T21:00:23.288Z,5.35
2023-02-24T21:02:49.715Z,5.32
2023-02-24T21:05:28.001Z,5.31
2023-02-24T21:07:54.600Z,5.28
2023-02-24T21:10:25.804Z,5.28
2023-02-24T21:12:52.876Z,5.29
2023-02-24T21:15:19.823Z,5.30
2023-02-24T21:17:46.251Z,5.31
2023-02-24T21:20:13.484Z,5.34
2023-02-24T21:22:40.908Z,5.38
2023-02-24T21:25:11.086Z,5.40
2023-02-24T21:27:38.264Z,5.41
2023-02-24T21:30:08.656Z,5.42
2023-02-24T21:32:35.751Z,5.45
2023-02-24T21:35:02.328Z,5.43
2023-02-24T21:37:28.986Z,5.45
2023-02-24T21:39:55.445Z,5.48
2023-02-24T21:42:22.402Z,5.49
2023-02-24T21:44:51.010Z,5.51
2023-02-24T21:47:18.125Z,5.51
2023-02-24T21:49:46.130Z,5.52
2023-02-24T21:52:13.071Z,5.51
2023-02-24T21:54:39.712Z,5.53
2023-02-24T21:57:06.109Z,5.53
2023-02-24T21:59:32.592Z,5.53
2023-02-24T22:01:59.179Z,5.48
2023-02-24T22:04:25.796Z,5.33
2023-02-24T22:06:52.188Z,5.14
2023-02-24T22:09:19.365Z,5.00
2023-02-24T22:11:47.436Z,4.86
2023-02-24T22:14:15.031Z,4.81
2023-02-24T22:16:42.710Z,4.74
2023-02-24T22:19:09.813Z,4.69
2023-02-24T22:21:36.466Z,4.67
2023-02-24T22:24:03.839Z,4.59
2023-02-24T22:26:32.050Z,4.51
2023-02-24T22:28:59.262Z,4.45
2023-02-24T22:31:28.284Z,4.38
2023-02-24T22:33:54.912Z,4.31
2023-02-24T22:36:27.706Z,4.23
2023-02-24T22:38:59.589Z,4.14
2023-02-24T22:41:29.662Z,4.05
2023-02-24T22:43:56.089Z,4.01
2023-02-24T22:46:33.838Z,3.96
2023-02-24T22:49:00.637Z,3.89
2023-02-24T22:51:27.177Z,3.82
2023-02-24T22:53:54.890Z,3.82
2023-02-24T22:56:24.480Z,3.78
2023-02-24T22:58:51.171Z,3.76
2023-02-24T23:01:23.234Z,3.73
2023-02-24T23:03:49.956Z,3.69
2023-02-24T23:06:19.760Z,3.65
2023-02-24T23:08:48.010Z,3.61
2023-02-24T23:11:18.965Z,3.56
2023-02-24T23:13:48.311Z,3.53
2023-02-24T23:16:18.486Z,3.46
2023-02-24T23:18:50.558Z,3.48
2023-02-24T23:21:20.683Z,3.45
2023-02-24T23:23:47.156Z,3.44
2023-02-24T23:26:14.076Z,3.45
2023-02-24T23:28:40.839Z,3.43
2023-02-24T23:31:07.443Z,3.43
2023-02-24T23:33:34.408Z,3.42
2023-02-24T23:36:06.803Z,3.38
2023-02-24T23:38:33.913Z,3.36
2023-02-24T23:41:01.019Z,3.33
2023-02-24T23:43:27.526Z,3.31
2023-02-24T23:45:53.994Z,3.29
2023-02-24T23:48:20.756Z,3.26
2023-02-24T23:50:47.135Z,3.22
2023-02-24T23:53:13.545Z,3.18
2023-02-24T23:55:40.715Z,3.18
2023-02-24T23:58:10.156Z,3.16
